createdAt,value
2023-01-11T00:00:28.258Z,100647.56
2023-01-11T00:02:56.752Z,100645.44
2023-01-11T00:05:23.453Z,100652.44
2023-01-11T00:07:49.966Z,100652.47
2023-01-11T00:10:16.741Z,100645.47
2023-01-11T00:12:43.182Z,100637.41
2023-01-11T00:15:10.400Z,100628.75
2023-01-11T00:17:36.960Z,100621.47
2023-01-11T00:20:03.818Z,100619.84
2023-01-11T00:22:30.268Z,100612.28
2023-01-11T00:24:56.772Z,100615.81
2023-01-11T00:27:23.154Z,100617.19
2023-01-11T00:29:49.567Z,100616.94
2023-01-11T00:32:16.023Z,100613.97
2023-01-11T00:34:42.531Z,100616.66
2023-01-11T00:37:10.602Z,100618.81
2023-01-11T00:39:37.034Z,100605.63
2023-01-11T00:42:21.960Z,100603.72
2023-01-11T00:45:07.000Z,100610.47
2023-01-11T00:47:52.064Z,100605.88
2023-01-11T00:50:18.623Z,100606.41
2023-01-11T00:52:45.034Z,100612.09
2023-01-11T00:55:11.433Z,100616.94
2023-01-11T00:57:37.840Z,100615.31
2023-01-11T01:00:06.022Z,100608.56
2023-01-11T01:02:32.851Z,100618.00
2023-01-11T01:04:59.703Z,100609.38
2023-01-11T01:07:26.264Z,100606.13
2023-01-11T01:09:52.677Z,100599.94
2023-01-11T01:12:37.644Z,100601.25
2023-01-11T01:15:04.469Z,100602.88
2023-01-11T01:17:31.016Z,100596.69
2023-01-11T01:19:57.424Z,100592.09
2023-01-11T01:22:23.875Z,100603.97
2023-01-11T01:24:50.400Z,100607.47
2023-01-11T01:27:17.824Z,100607.72
2023-01-11T01:29:44.465Z,100598.31
2023-01-11T01:32:10.959Z,100595.34
2023-01-11T01:34:37.582Z,100592.38
2023-01-11T01:37:05.738Z,100593.72
2023-01-11T01:39:32.331Z,100584.56
2023-01-11T01:41:59.309Z,100580.22
2023-01-11T01:44:52.744Z,100588.31
2023-01-11T01:47:26.203Z,100585.34
2023-01-11T01:49:53.080Z,100582.94
2023-01-11T01:52:19.578Z,100586.72
2023-01-11T01:54:49.244Z,100580.22
2023-01-11T01:57:24.832Z,100574.84
2023-01-11T01:59:52.794Z,100581.31
2023-01-11T02:02:24.023Z,100571.84
2023-01-11T02:04:52.945Z,100569.19
2023-01-11T02:07:22.635Z,100564.88
2023-01-11T02:10:04.650Z,100555.94
2023-01-11T02:12:57.022Z,100561.59
2023-01-11T02:15:23.980Z,100551.34
2023-01-11T02:17:51.002Z,100534.63
2023-01-11T02:20:23.648Z,100528.72
2023-01-11T02:23:27.655Z,100527.09
2023-01-11T02:26:20.339Z,100528.47
2023-01-11T02:29:30.008Z,100528.47
2023-01-11T02:32:17.795Z,100536.25
2023-01-11T02:35:06.956Z,100536.81
2023-01-11T02:38:05.204Z,100537.88
2023-01-11T02:40:59.711Z,100531.94
2023-01-11T02:43:50.755Z,100527.66
2023-01-11T02:46:32.820Z,100523.31
2023-01-11T02:49:09.357Z,100521.44
2023-01-11T02:51:42.760Z,100513.06
2023-01-11T02:54:11.606Z,100508.19
2023-01-11T02:56:44.569Z,100492.81
2023-01-11T02:59:15.542Z,100497.41
2023-01-11T03:01:51.561Z,100494.97
2023-01-11T03:04:25.657Z,100490.09
2023-01-11T03:06:59.320Z,100482.84
2023-01-11T03:09:35.041Z,100486.91
2023-01-11T03:12:32.401Z,100476.66
2023-01-11T03:15:17.436Z,100471.00
2023-01-11T03:18:05.222Z,100466.94
2023-01-11T03:20:47.269Z,100463.97
2023-01-11T03:23:55.350Z,100470.19
2023-01-11T03:26:49.634Z,100461.28
2023-01-11T03:29:34.264Z,100458.31
2023-01-11T03:32:25.953Z,100448.88
2023-01-11T03:34:58.335Z,100448.06
2023-01-11T03:37:35.949Z,100436.47
2023-01-11T03:40:17.095Z,100441.88
2023-01-11T03:43:05.553Z,100436.47
2023-01-11T03:45:36.564Z,100434.31
2023-01-11T03:48:06.863Z,100422.22
2023-01-11T03:50:34.190Z,100426.78
2023-01-11T03:53:05.434Z,100412.50
2023-01-11T03:55:36.960Z,100410.06
2023-01-11T03:58:03.597Z,100405.75
2023-01-11T04:00:31.270Z,100401.72
2023-01-11T04:03:00.172Z,100404.94
2023-01-11T04:05:26.755Z,100398.19
2023-01-11T04:07:54.243Z,100392.25
2023-01-11T04:10:20.664Z,100391.72
2023-01-11T04:12:48.253Z,100393.84
2023-01-11T04:15:16.032Z,100398.44
2023-01-11T04:17:42.988Z,100396.81
2023-01-11T04:20:10.410Z,100388.16
2023-01-11T04:22:36.884Z,100385.22
2023-01-11T04:25:04.533Z,100384.16
2023-01-11T04:27:31.023Z,100391.13
2023-01-11T04:29:57.458Z,100386.03
2023-01-11T04:32:24.525Z,100390.63
2023-01-11T04:34:50.963Z,100381.44
2023-01-11T04:37:17.472Z,100379.81
2023-01-11T04:39:43.937Z,100383.03
2023-01-11T04:42:18.370Z,100381.44
2023-01-11T04:44:48.162Z,100372.53
2023-01-11T04:47:16.210Z,100373.34
2023-01-11T04:49:43.078Z,100377.66
2023-01-11T04:52:11.479Z,100371.75
2023-01-11T04:54:38.655Z,100364.44
2023-01-11T04:57:06.033Z,100361.75
2023-01-11T04:59:32.885Z,100353.94
2023-01-11T05:01:59.336Z,100349.88
2023-01-11T05:04:25.794Z,100346.66
2023-01-11T05:06:52.549Z,100332.06
2023-01-11T05:09:19.082Z,100326.16
2023-01-11T05:11:45.933Z,100322.88
2023-01-11T05:14:12.884Z,100323.69
2023-01-11T05:16:39.496Z,100314.25
2023-01-11T05:19:06.376Z,100311.31
2023-01-11T05:21:35.805Z,100313.72
2023-01-11T05:24:06.211Z,100313.75
2023-01-11T05:26:35.096Z,100294.81
2023-01-11T05:29:05.210Z,100302.66
2023-01-11T05:31:33.151Z,100306.41
2023-01-11T05:33:59.907Z,100305.06
2023-01-11T05:36:28.163Z,100302.66
2023-01-11T05:38:56.359Z,100285.91
2023-01-11T05:41:25.701Z,100296.66
2023-01-11T05:44:11.970Z,100293.44
2023-01-11T05:46:40.479Z,100276.41
2023-01-11T05:49:08.089Z,100282.09
2023-01-11T05:51:35.245Z,100283.16
2023-01-11T05:54:03.848Z,100287.19
2023-01-11T05:56:30.747Z,100292.59
2023-01-11T05:58:57.618Z,100301.00
2023-01-11T06:01:25.766Z,100324.16
2023-01-11T06:03:52.719Z,100317.41
2023-01-11T06:06:20.359Z,100323.63
2023-01-11T06:08:47.393Z,100317.41
2023-01-11T06:11:15.330Z,100327.13
2023-01-11T06:13:42.600Z,100324.41
2023-01-11T06:16:12.311Z,100326.81
2023-01-11T06:18:41.838Z,100323.53
2023-01-11T06:21:09.547Z,100335.69
2023-01-11T06:23:38.602Z,100320.28
2023-01-11T06:26:11.113Z,100319.47
2023-01-11T06:28:38.282Z,100317.84
2023-01-11T06:31:06.549Z,100307.28
2023-01-11T06:33:33.491Z,100316.72
2023-01-11T06:36:03.942Z,100308.03
2023-01-11T06:38:30.468Z,100299.94
2023-01-11T06:41:00.536Z,100287.22
2023-01-11T06:43:28.352Z,100279.09
2023-01-11T06:45:55.615Z,100272.16
2023-01-11T06:48:23.609Z,100275.41
2023-01-11T06:50:52.259Z,100284.06
2023-01-11T06:53:19.710Z,100271.41
2023-01-11T06:55:50.532Z,100273.28
2023-01-11T06:58:17.162Z,100278.69
2023-01-11T07:00:43.838Z,100257.09
2023-01-11T07:03:11.483Z,100259.25
2023-01-11T07:05:38.093Z,100255.16
2023-01-11T07:08:05.149Z,100268.09
2023-01-11T07:10:31.771Z,100272.41
2023-01-11T07:12:58.222Z,100272.69
2023-01-11T07:15:24.909Z,100285.91
2023-01-11T07:17:56.446Z,100288.34
2023-01-11T07:20:24.627Z,100277.75
2023-01-11T07:22:51.724Z,100287.22
2023-01-11T07:25:18.720Z,100292.34
2023-01-11T07:27:45.489Z,100285.81
2023-01-11T07:30:12.436Z,100281.47
2023-01-11T07:32:39.535Z,100283.09
2023-01-11T07:35:07.176Z,100289.28
2023-01-11T07:37:36.904Z,100286.06
2023-01-11T07:40:03.750Z,100294.38
2023-01-11T07:42:48.987Z,100299.50
2023-01-11T07:45:15.727Z,100304.63
2023-01-11T07:47:42.196Z,100297.06
2023-01-11T07:50:09.191Z,100302.72
2023-01-11T07:52:35.683Z,100311.06
2023-01-11T07:55:02.816Z,100305.94
2023-01-11T07:57:30.549Z,100307.25
2023-01-11T07:59:57.197Z,100298.88
2023-01-11T08:02:24.162Z,100298.31
2023-01-11T08:04:50.856Z,100302.13
2023-01-11T08:07:17.426Z,100300.69
2023-01-11T08:09:43.992Z,100300.69
2023-01-11T08:12:29.418Z,100291.50
2023-01-11T08:14:55.878Z,100297.41
2023-01-11T08:17:22.497Z,100297.34
2023-01-11T08:19:49.040Z,100285.16
2023-01-11T08:22:15.610Z,100297.03
2023-01-11T08:24:42.244Z,100299.94
2023-01-11T08:27:08.888Z,100296.16
2023-01-11T08:29:35.570Z,100298.28
2023-01-11T08:32:02.490Z,100291.78
2023-01-11T08:34:29.167Z,100286.38
2023-01-11T08:36:57.514Z,100302.28
2023-01-11T08:39:24.621Z,100297.13
2023-01-11T08:41:51.188Z,100293.88
2023-01-11T08:44:29.113Z,100293.88
2023-01-11T08:46:59.467Z,100286.84
2023-01-11T08:49:25.955Z,100288.47
2023-01-11T08:51:52.562Z,100289.25
2023-01-11T08:54:19.021Z,100284.63
2023-01-11T08:56:45.499Z,100283.53
2023-01-11T08:59:12.156Z,100284.84
2023-01-11T09:01:38.710Z,100273.75
2023-01-11T09:04:19.160Z,100265.63
2023-01-11T09:06:49.875Z,100266.66
2023-01-11T09:09:17.025Z,100268.81
2023-01-11T09:12:09.911Z,100263.91
2023-01-11T09:14:36.516Z,100261.16
2023-01-11T09:17:03.008Z,100263.28
2023-01-11T09:19:29.527Z,100252.97
2023-01-11T09:21:57.799Z,100251.88
2023-01-11T09:24:24.309Z,100262.06
2023-01-11T09:26:50.860Z,100264.22
2023-01-11T09:29:17.961Z,100255.81
2023-01-11T09:31:44.586Z,100262.25
2023-01-11T09:34:12.712Z,100246.00
2023-01-11T09:36:40.301Z,100245.13
2023-01-11T09:39:11.779Z,100243.47
2023-01-11T09:42:07.402Z,100242.66
2023-01-11T09:44:36.728Z,100234.22
2023-01-11T09:47:32.832Z,100230.66
2023-01-11T09:50:04.552Z,100228.47
2023-01-11T09:52:38.383Z,100233.88
2023-01-11T09:55:06.105Z,100232.50
2023-01-11T09:57:54.904Z,100227.28
2023-01-11T10:00:37.367Z,100230.25
2023-01-11T10:03:13.297Z,100230.56
2023-01-11T10:06:09.124Z,100219.94
2023-01-11T10:18:28.852Z,100221.78
2023-01-11T10:19:24.837Z,100228.50
2023-01-11T10:21:53.368Z,100221.66
2023-01-11T10:24:30.674Z,100228.88
2023-01-11T10:27:17.637Z,100227.22
2023-01-11T10:29:47.839Z,100217.69
2023-01-11T10:32:40.055Z,100222.53
2023-01-11T10:35:33.965Z,100226.53
2023-01-11T10:38:30.807Z,100222.22
2023-01-11T10:41:15.632Z,100210.22
2023-01-11T10:43:46.501Z,100214.47
2023-01-11T10:46:26.510Z,100213.16
2023-01-11T10:49:35.803Z,100209.69
2023-01-11T10:52:38.971Z,100203.25
2023-01-11T10:55:14.411Z,100194.97
2023-01-11T10:58:03.574Z,100199.06
2023-01-11T11:00:41.498Z,100189.41
2023-01-11T11:03:10.748Z,100196.22
2023-01-11T11:06:05.042Z,100191.91
2023-01-11T11:08:49.594Z,100187.56
2023-01-11T11:11:24.295Z,100181.06
2023-01-11T11:13:56.838Z,100186.19
2023-01-11T11:16:23.279Z,100186.72
2023-01-11T11:18:58.435Z,100189.94
2023-01-11T11:21:38.745Z,100189.66
2023-01-11T11:24:13.517Z,100189.94
2023-01-11T11:26:45.409Z,100186.34
2023-01-11T11:29:22.808Z,100174.69
2023-01-11T11:31:50.744Z,100176.59
2023-01-11T11:34:20.712Z,100171.97
2023-01-11T11:36:50.219Z,100159.16
2023-01-11T11:39:22.063Z,100159.47
2023-01-11T11:41:54.018Z,100162.69
2023-01-11T11:44:24.382Z,100166.25
2023-01-11T11:47:14.861Z,100160.25
2023-01-11T11:49:42.209Z,100155.88
2023-01-11T11:52:17.585Z,100166.78
2023-01-11T11:54:56.917Z,100161.88
2023-01-11T11:57:31.115Z,100157.38
2023-01-11T12:00:09.026Z,100163.41
2023-01-11T12:02:42.035Z,100166.31
2023-01-11T12:05:10.565Z,100149.25
2023-01-11T12:07:54.209Z,100148.38
2023-01-11T12:10:24.179Z,100154.91
2023-01-11T12:12:59.326Z,100147.56
2023-01-11T12:15:30.739Z,100144.34
2023-01-11T12:18:26.552Z,100137.63
2023-01-11T12:20:53.821Z,100140.31
2023-01-11T12:23:25.382Z,100143.53
2023-01-11T12:26:21.345Z,100136.22
2023-01-11T12:29:06.767Z,100137.09
2023-01-11T12:31:39.025Z,100143.63
2023-01-11T12:34:11.597Z,100137.19
2023-01-11T12:37:04.180Z,100139.91
2023-01-11T12:39:36.439Z,100142.63
2023-01-11T12:42:40.595Z,100145.84
2023-01-11T12:45:15.328Z,100149.66
2023-01-11T12:47:50.527Z,100135.28
2023-01-11T12:50:20.488Z,100147.13
2023-01-11T12:53:24.691Z,100138.88
2023-01-11T12:56:25.121Z,100135.13
2023-01-11T12:59:07.093Z,100145.91
2023-01-11T13:01:38.100Z,100142.56
2023-01-11T13:04:12.461Z,100143.59
2023-01-11T13:07:19.558Z,100151.44
2023-01-11T13:10:25.406Z,100131.13
2023-01-11T13:13:05.721Z,100132.75
2023-01-11T13:16:00.987Z,100128.66
2023-01-11T13:18:35.663Z,100130.56
2023-01-11T13:21:19.351Z,100130.84
2023-01-11T13:23:54.621Z,100140.06
2023-01-11T13:26:26.942Z,100138.97
2023-01-11T13:29:00.646Z,100133.56
2023-01-11T13:31:27.693Z,100138.91
2023-01-11T13:34:01.070Z,100138.91
2023-01-11T13:36:38.512Z,100138.28
2023-01-11T13:39:28.490Z,100147.03
2023-01-11T13:41:59.061Z,100140.50
2023-01-11T13:44:36.382Z,100143.31
2023-01-11T13:47:17.197Z,100149.53
2023-01-11T13:50:10.688Z,100156.16
2023-01-11T13:52:44.154Z,100154.84
2023-01-11T13:55:27.047Z,100155.75
2023-01-11T13:58:02.698Z,100163.91
2023-01-11T14:00:47.574Z,100166.91
2023-01-11T14:03:22.646Z,100172.22
2023-01-11T14:09:28.420Z,100183.06
2023-01-11T14:11:54.775Z,100180.97
2023-01-11T14:14:39.663Z,100198.56
2023-01-11T14:17:13.363Z,100197.13
2023-01-11T14:20:01.528Z,100186.09
2023-01-11T14:22:58.851Z,100186.59
2023-01-11T14:25:38.758Z,100187.91
2023-01-11T14:28:27.214Z,100194.72
2023-01-11T14:31:15.329Z,100191.53
2023-01-11T14:34:02.936Z,100199.72
2023-01-11T14:36:48.202Z,100200.59
2023-01-11T14:39:52.284Z,100194.59
2023-01-11T14:42:49.937Z,100213.78
2023-01-11T14:45:41.313Z,100214.38
2023-01-11T14:48:30.401Z,100215.47
2023-01-11T14:51:34.322Z,100212.25
2023-01-11T14:54:06.932Z,100209.88
2023-01-11T14:56:42.230Z,100203.47
2023-01-11T14:59:27.385Z,100205.88
2023-01-11T15:02:03.028Z,100208.16
2023-01-11T15:04:35.361Z,100217.19
2023-01-11T15:07:29.719Z,100212.47
2023-01-11T15:09:58.387Z,100213.66
2023-01-11T15:12:45.039Z,100214.75
2023-01-11T15:15:11.405Z,100223.38
2023-01-11T15:17:57.026Z,100222.38
2023-01-11T15:20:27.802Z,100229.41
2023-01-11T15:23:00.295Z,100220.66
2023-01-11T15:25:29.707Z,100233.06
2023-01-11T15:27:56.556Z,100224.13
2023-01-11T15:30:29.212Z,100239.34
2023-01-11T15:33:17.704Z,100238.88
2023-01-11T15:35:56.447Z,100245.59
2023-01-11T15:38:42.433Z,100254.53
2023-01-11T15:41:35.760Z,100262.47
2023-01-11T15:44:56.606Z,100265.97
2023-01-11T15:47:40.909Z,100268.19
2023-01-11T15:50:07.327Z,100257.09
2023-01-11T15:53:12.365Z,100255.91
2023-01-11T15:56:02.241Z,100262.81
2023-01-11T15:58:50.253Z,100267.66
2023-01-11T16:01:29.617Z,100276.22
2023-01-11T16:04:28.507Z,100276.81
2023-01-11T16:06:58.728Z,100270.38
2023-01-11T16:09:50.219Z,100275.22
2023-01-11T16:12:47.589Z,100276.72
2023-01-11T16:15:38.205Z,100272.94
2023-01-11T16:18:13.615Z,100265.09
2023-01-11T16:20:44.020Z,100271.88
2023-01-11T16:23:19.691Z,100282.69
2023-01-11T16:25:49.850Z,100284.06
2023-01-11T16:28:19.533Z,100281.34
2023-01-11T16:30:46.927Z,100284.56
2023-01-11T16:33:26.472Z,100286.47
2023-01-11T16:36:11.418Z,100292.19
2023-01-11T16:38:45.959Z,100303.31
2023-01-11T16:41:15.172Z,100313.59
2023-01-11T16:43:59.211Z,100317.63
2023-01-11T16:46:46.950Z,100331.34
2023-01-11T16:49:17.680Z,100337.28
2023-01-11T16:51:45.356Z,100340.00
2023-01-11T16:54:26.173Z,100350.88
2023-01-11T16:56:53.872Z,100350.09
2023-01-11T16:59:27.749Z,100353.41
2023-01-11T17:01:57.043Z,100356.97
2023-01-11T17:04:37.180Z,100361.34
2023-01-11T17:07:20.105Z,100363.88
2023-01-11T17:09:46.504Z,100367.16
2023-01-11T17:12:21.907Z,100374.53
2023-01-11T17:15:23.745Z,100369.63
2023-01-11T17:17:50.773Z,100385.59
2023-01-11T17:20:20.929Z,100382.66
2023-01-11T17:22:50.674Z,100386.47
2023-01-11T17:25:29.540Z,100388.72
2023-01-11T17:28:02.770Z,100386.28
2023-01-11T17:30:30.152Z,100389.81
2023-01-11T17:32:59.530Z,100393.06
2023-01-11T17:35:28.994Z,100399.84
2023-01-11T17:37:58.969Z,100403.88
2023-01-11T17:40:30.067Z,100406.06
2023-01-11T17:43:38.905Z,100415.25
2023-01-11T17:46:06.577Z,100415.88
2023-01-11T17:48:33.943Z,100415.94
2023-01-11T17:51:03.115Z,100415.69
2023-01-11T17:53:37.464Z,100422.56
2023-01-11T17:56:27.544Z,100421.78
2023-01-11T17:59:15.820Z,100421.31
2023-01-11T18:01:50.297Z,100428.66
2023-01-11T18:04:19.930Z,100429.75
2023-01-11T18:06:50.760Z,100433.63
2023-01-11T18:09:24.547Z,100435.50
2023-01-11T18:11:52.985Z,100436.88
2023-01-11T18:14:29.925Z,100441.03
2023-01-11T18:17:02.710Z,100435.63
2023-01-11T18:19:34.666Z,100447.84
2023-01-11T18:22:01.384Z,100445.19
2023-01-11T18:24:33.854Z,100444.69
2023-01-11T18:27:15.707Z,100443.59
2023-01-11T18:29:47.434Z,100435.00
2023-01-11T18:32:15.089Z,100439.31
2023-01-11T18:34:44.116Z,100445.81
2023-01-11T18:37:10.891Z,100446.59
2023-01-11T18:39:37.733Z,100461.44
2023-01-11T18:42:08.035Z,100457.91
2023-01-11T18:44:39.048Z,100468.47
2023-01-11T18:47:28.436Z,100469.50
2023-01-11T18:49:55.177Z,100471.91
2023-01-11T18:52:27.641Z,100477.53
2023-01-11T18:54:55.748Z,100475.91
2023-01-11T18:57:23.510Z,100483.44
2023-01-11T18:59:52.346Z,100481.31
2023-01-11T19:02:33.280Z,100480.75
2023-01-11T19:04:59.774Z,100482.38
2023-01-11T19:07:26.838Z,100483.47
2023-01-11T19:09:54.917Z,100489.69
2023-01-11T19:12:23.550Z,100490.50
2023-01-11T19:14:49.978Z,100497.28
2023-01-11T19:17:16.825Z,100497.03
2023-01-11T19:19:43.480Z,100496.19
2023-01-11T19:22:11.257Z,100518.41
2023-01-11T19:24:38.035Z,100514.31
2023-01-11T19:27:04.553Z,100525.44
2023-01-11T19:29:32.599Z,100523.88
2023-01-11T19:31:59.103Z,100525.47
2023-01-11T19:34:25.565Z,100525.47
2023-01-11T19:36:52.522Z,100528.16
2023-01-11T19:39:19.001Z,100531.19
2023-01-11T19:41:54.818Z,100532.78
2023-01-11T19:44:22.102Z,100530.72
2023-01-11T19:46:56.702Z,100527.16
2023-01-11T19:49:27.842Z,100527.22
2023-01-11T19:52:00.343Z,100534.28
2023-01-11T19:54:28.375Z,100536.97
2023-01-11T19:56:55.591Z,100540.50
2023-01-11T19:59:22.117Z,100539.44
2023-01-11T20:01:48.989Z,100538.13
2023-01-11T20:04:17.001Z,100544.38
2023-01-11T20:06:50.381Z,100551.41
2023-01-11T20:09:18.824Z,100549.50
2023-01-11T20:11:46.272Z,100546.25
2023-01-11T20:14:12.719Z,100548.44
2023-01-11T20:16:39.228Z,100548.97
2023-01-11T20:19:05.663Z,100561.47
2023-01-11T20:21:34.114Z,100558.22
2023-01-11T20:24:01.818Z,100563.38
2023-01-11T20:26:30.771Z,100572.28
2023-01-11T20:28:59.075Z,100581.50
2023-01-11T20:31:31.624Z,100582.31
2023-01-11T20:34:00.005Z,100596.44
2023-01-11T20:36:27.115Z,100584.53
2023-01-11T20:38:55.071Z,100583.72
2023-01-11T20:41:43.432Z,100579.94
2023-01-11T20:44:10.528Z,100586.19
2023-01-11T20:46:37.509Z,100582.63
2023-01-11T20:49:05.412Z,100581.00
2023-01-11T20:51:31.966Z,100579.66
2023-01-11T20:53:58.494Z,100578.03
2023-01-11T20:56:24.950Z,100568.56
2023-01-11T20:58:52.106Z,100574.78
2023-01-11T21:01:23.433Z,100565.00
2023-01-11T21:03:49.875Z,100575.81
2023-01-11T21:06:16.337Z,100578.19
2023-01-11T21:08:42.938Z,100567.63
2023-01-11T21:11:12.855Z,100561.13
2023-01-11T21:13:40.277Z,100563.59
2023-01-11T21:16:15.353Z,100569.81
2023-01-11T21:18:45.998Z,100557.41
2023-01-11T21:21:13.824Z,100552.88
2023-01-11T21:23:40.595Z,100555.56
2023-01-11T21:26:11.877Z,100546.97
2023-01-11T21:28:39.409Z,100540.50
2023-01-11T21:31:10.689Z,100539.34
2023-01-11T21:33:39.178Z,100534.53
2023-01-11T21:36:10.307Z,100529.66
2023-01-11T21:38:37.268Z,100533.72
2023-01-11T21:41:09.234Z,100533.66
2023-01-11T21:43:36.467Z,100546.16
2023-01-11T21:46:04.834Z,100536.66
2023-01-11T21:48:31.933Z,100556.13
2023-01-11T21:50:59.251Z,100559.63
2023-01-11T21:53:32.530Z,100554.53
2023-01-11T21:56:07.556Z,100566.94
2023-01-11T21:58:35.478Z,100564.56
2023-01-11T22:01:11.741Z,100558.06
2023-01-11T22:03:38.295Z,100565.09
2023-01-11T22:06:05.151Z,100574.59
2023-01-11T22:08:35.089Z,100577.81
2023-01-11T22:11:03.727Z,100583.25
2023-01-11T22:13:31.186Z,100575.72
2023-01-11T22:16:04.601Z,100576.53
2023-01-11T22:18:33.647Z,100589.81
2023-01-11T22:21:27.493Z,100584.44
2023-01-11T22:23:55.242Z,100593.91
2023-01-11T22:29:17.254Z,100598.78
2023-01-11T22:31:52.636Z,100597.94
2023-01-11T22:34:19.471Z,100594.47
2023-01-11T22:36:46.777Z,100596.59
2023-01-11T22:39:14.834Z,100605.50
2023-01-11T22:41:42.202Z,100590.13
2023-01-11T22:44:09.380Z,100602.53
2023-01-11T22:46:35.867Z,100604.44
2023-01-11T22:49:04.099Z,100601.47
2023-01-11T22:51:31.060Z,100593.34
2023-01-11T22:53:58.291Z,100592.53
2023-01-11T22:56:26.797Z,100597.13
2023-01-11T22:58:53.971Z,100595.28
2023-01-11T23:01:26.118Z,100595.78
2023-01-11T23:03:54.014Z,100593.91
2023-01-11T23:06:29.421Z,100594.72
2023-01-11T23:08:56.488Z,100589.59
2023-01-11T23:11:48.436Z,100587.41
2023-01-11T23:14:17.691Z,100588.50
2023-01-11T23:16:45.417Z,100591.47
2023-01-11T23:19:16.480Z,100576.63
2023-01-11T23:21:44.927Z,100569.31
2023-01-11T23:24:13.410Z,100572.31
2023-01-11T23:26:40.087Z,100568.25
2023-01-11T23:29:06.618Z,100579.03
2023-01-11T23:31:34.275Z,100580.94
2023-01-11T23:34:02.093Z,100583.91
2023-01-11T23:36:31.642Z,100580.41
2023-01-11T23:38:58.729Z,100589.06
2023-01-11T23:41:43.890Z,100582.00
2023-01-11T23:44:12.822Z,100584.69
2023-01-11T23:46:58.762Z,100578.47
2023-01-11T23:49:25.855Z,100569.84
2023-01-11T23:51:56.170Z,100571.47
2023-01-11T23:54:25.619Z,100574.13
2023-01-11T23:56:52.062Z,100575.97
2023-01-11T23:59:18.512Z,100582.66
